sensor_id;sensor_type;location;lat;lon;timestamp;P1;durP1;ratioP1;P2;durP2;ratioP2
84054;SDS011;74141;51.504;7.122;2023-11-21T00:01:37;33.83;;;18.25;;
84054;SDS011;74141;51.504;7.122;2023-11-21T00:04:02;31.02;;;17.20;;
84054;SDS011;74141;51.504;7.122;2023-11-21T00:06:28;33.60;;;17.42;;
84054;SDS011;74141;51.504;7.122;2023-11-21T00:08:55;30.80;;;16.60;;
84054;SDS011;74141;51.504;7.122;2023-11-21T00:11:20;33.28;;;17.15;;
84054;SDS011;74141;51.504;7.122;2023-11-21T00:13:46;30.95;;;17.30;;
84054;SDS011;74141;51.504;7.122;2023-11-21T00:16:11;34.05;;;16.67;;
84054;SDS011;74141;51.504;7.122;2023-11-21T00:18:37;41.27;;;18.03;;
84054;SDS011;74141;51.504;7.122;2023-11-21T00:21:02;42.80;;;17.80;;
84054;SDS011;74141;51.504;7.122;2023-11-21T00:23:28;35.70;;;18.25;;
84054;SDS011;74141;51.504;7.122;2023-11-21T00:25:54;34.83;;;17.38;;
84054;SDS011;74141;51.504;7.122;2023-11-21T00:28:19;37.83;;;17.63;;
84054;SDS011;74141;51.504;7.122;2023-11-21T00:30:44;33.80;;;16.80;;
84054;SDS011;74141;51.504;7.122;2023-11-21T00:33:09;31.70;;;17.15;;
84054;SDS011;74141;51.504;7.122;2023-11-21T00:35:35;28.13;;;16.58;;
84054;SDS011;74141;51.504;7.122;2023-11-21T00:38:00;30.10;;;15.40;;
84054;SDS011;74141;51.504;7.122;2023-11-21T00:40:25;33.63;;;16.13;;
84054;SDS011;74141;51.504;7.122;2023-11-21T00:42:51;30.20;;;14.90;;
84054;SDS011;74141;51.504;7.122;2023-11-21T00:45:16;31.92;;;16.10;;
84054;SDS011;74141;51.504;7.122;2023-11-21T00:47:41;34.37;;;17.27;;
84054;SDS011;74141;51.504;7.122;2023-11-21T00:50:07;30.95;;;16.30;;
84054;SDS011;74141;51.504;7.122;2023-11-21T00:52:33;34.35;;;16.17;;
84054;SDS011;74141;51.504;7.122;2023-11-21T00:54:58;28.88;;;16.67;;
84054;SDS011;74141;51.504;7.122;2023-11-21T00:57:25;35.15;;;16.27;;
84054;SDS011;74141;51.504;7.122;2023-11-21T00:59:51;31.02;;;16.88;;
84054;SDS011;74141;51.504;7.122;2023-11-21T01:02:16;28.48;;;15.68;;
84054;SDS011;74141;51.504;7.122;2023-11-21T01:04:41;35.70;;;16.27;;
84054;SDS011;74141;51.504;7.122;2023-11-21T01:07:07;36.30;;;15.05;;
84054;SDS011;74141;51.504;7.122;2023-11-21T01:09:32;36.20;;;17.05;;
84054;SDS011;74141;51.504;7.122;2023-11-21T01:11:58;33.60;;;16.85;;
84054;SDS011;74141;51.504;7.122;2023-11-21T01:14:24;31.83;;;16.80;;
84054;SDS011;74141;51.504;7.122;2023-11-21T01:16:52;31.80;;;15.30;;
84054;SDS011;74141;51.504;7.122;2023-11-21T01:19:17;37.67;;;15.43;;
84054;SDS011;74141;51.504;7.122;2023-11-21T01:21:43;29.27;;;15.97;;
84054;SDS011;74141;51.504;7.122;2023-11-21T01:24:08;36.53;;;14.93;;
84054;SDS011;74141;51.504;7.122;2023-11-21T01:26:33;31.92;;;15.18;;
84054;SDS011;74141;51.504;7.122;2023-11-21T01:28:59;33.08;;;16.13;;
84054;SDS011;74141;51.504;7.122;2023-11-21T01:31:24;38.90;;;16.52;;
84054;SDS011;74141;51.504;7.122;2023-11-21T01:33:54;32.53;;;15.32;;
84054;SDS011;74141;51.504;7.122;2023-11-21T01:36:20;41.97;;;17.63;;
84054;SDS011;74141;51.504;7.122;2023-11-21T01:38:46;36.22;;;16.20;;
84054;SDS011;74141;51.504;7.122;2023-11-21T01:41:13;29.23;;;14.88;;
84054;SDS011;74141;51.504;7.122;2023-11-21T01:43:38;28.80;;;13.90;;
84054;SDS011;74141;51.504;7.122;2023-11-21T01:46:04;32.03;;;14.33;;
84054;SDS011;74141;51.504;7.122;2023-11-21T01:48:31;27.25;;;14.05;;
84054;SDS011;74141;51.504;7.122;2023-11-21T01:50:57;29.42;;;14.57;;
84054;SDS011;74141;51.504;7.122;2023-11-21T01:53:24;31.75;;;14.60;;
84054;SDS011;74141;51.504;7.122;2023-11-21T01:55:51;31.13;;;15.30;;
84054;SDS011;74141;51.504;7.122;2023-11-21T01:58:17;31.48;;;14.73;;
84054;SDS011;74141;51.504;7.122;2023-11-21T02:00:42;29.30;;;14.68;;
84054;SDS011;74141;51.504;7.122;2023-11-21T02:03:11;32.45;;;15.13;;
84054;SDS011;74141;51.504;7.122;2023-11-21T02:05:37;29.63;;;14.38;;
84054;SDS011;74141;51.504;7.122;2023-11-21T02:08:11;29.38;;;14.18;;
84054;SDS011;74141;51.504;7.122;2023-11-21T02:10:36;33.33;;;14.25;;
84054;SDS011;74141;51.504;7.122;2023-11-21T02:13:11;29.35;;;16.13;;
84054;SDS011;74141;51.504;7.122;2023-11-21T02:15:37;28.20;;;14.50;;
84054;SDS011;74141;51.504;7.122;2023-11-21T02:18:12;29.95;;;14.85;;
84054;SDS011;74141;51.504;7.122;2023-11-21T02:20:38;30.13;;;14.57;;
84054;SDS011;74141;51.504;7.122;2023-11-21T02:23:12;27.05;;;15.18;;
84054;SDS011;74141;51.504;7.122;2023-11-21T02:25:38;31.30;;;14.05;;
84054;SDS011;74141;51.504;7.122;2023-11-21T02:28:12;25.35;;;13.20;;
84054;SDS011;74141;51.504;7.122;2023-11-21T02:30:40;30.77;;;14.45;;
84054;SDS011;74141;51.504;7.122;2023-11-21T02:33:11;29.90;;;14.77;;
84054;SDS011;74141;51.504;7.122;2023-11-21T02:35:37;28.83;;;13.57;;
84054;SDS011;74141;51.504;7.122;2023-11-21T02:38:12;26.23;;;13.70;;
84054;SDS011;74141;51.504;7.122;2023-11-21T02:40:37;27.13;;;12.48;;
84054;SDS011;74141;51.504;7.122;2023-11-21T02:43:12;27.52;;;14.07;;
84054;SDS011;74141;51.504;7.122;2023-11-21T02:45:37;27.90;;;13.57;;
84054;SDS011;74141;51.504;7.122;2023-11-21T02:48:12;32.63;;;14.55;;
84054;SDS011;74141;51.504;7.122;2023-11-21T02:50:37;28.90;;;14.43;;
84054;SDS011;74141;51.504;7.122;2023-11-21T02:53:11;32.72;;;14.68;;
84054;SDS011;74141;51.504;7.122;2023-11-21T02:55:37;33.72;;;15.05;;
84054;SDS011;74141;51.504;7.122;2023-11-21T02:58:11;35.30;;;15.90;;
84054;SDS011;74141;51.504;7.122;2023-11-21T03:00:37;33.47;;;14.90;;
84054;SDS011;74141;51.504;7.122;2023-11-21T03:03:02;33.92;;;15.40;;
84054;SDS011;74141;51.504;7.122;2023-11-21T03:05:29;34.83;;;15.45;;
84054;SDS011;74141;51.504;7.122;2023-11-21T03:07:54;35.67;;;17.10;;
84054;SDS011;74141;51.504;7.122;2023-11-21T03:10:20;32.22;;;15.20;;
84054;SDS011;74141;51.504;7.122;2023-11-21T03:12:45;34.50;;;15.13;;
84054;SDS011;74141;51.504;7.122;2023-11-21T03:15:10;38.28;;;16.63;;
84054;SDS011;74141;51.504;7.122;2023-11-21T03:17:36;34.47;;;14.00;;
84054;SDS011;74141;51.504;7.122;2023-11-21T03:20:02;33.08;;;14.60;;
84054;SDS011;74141;51.504;7.122;2023-11-21T03:22:28;31.30;;;13.38;;
84054;SDS011;74141;51.504;7.122;2023-11-21T03:24:54;31.13;;;13.93;;
84054;SDS011;74141;51.504;7.122;2023-11-21T03:27:19;28.48;;;14.07;;
84054;SDS011;74141;51.504;7.122;2023-11-21T03:29:45;26.60;;;14.43;;
84054;SDS011;74141;51.504;7.122;2023-11-21T03:32:11;25.45;;;12.68;;
84054;SDS011;74141;51.504;7.122;2023-11-21T03:34:42;31.10;;;12.88;;
84054;SDS011;74141;51.504;7.122;2023-11-21T03:37:18;28.63;;;13.40;;
84054;SDS011;74141;51.504;7.122;2023-11-21T03:39:45;26.50;;;13.45;;
84054;SDS011;74141;51.504;7.122;2023-11-21T03:42:11;39.83;;;15.07;;
84054;SDS011;74141;51.504;7.122;2023-11-21T03:44:36;28.77;;;13.32;;
84054;SDS011;74141;51.504;7.122;2023-11-21T03:47:01;33.00;;;14.07;;
84054;SDS011;74141;51.504;7.122;2023-11-21T03:49:27;31.83;;;14.90;;
84054;SDS011;74141;51.504;7.122;2023-11-21T03:51:54;32.17;;;13.75;;
84054;SDS011;74141;51.504;7.122;2023-11-21T03:54:19;30.80;;;13.75;;
84054;SDS011;74141;51.504;7.122;2023-11-21T03:56:45;32.67;;;14.57;;
84054;SDS011;74141;51.504;7.122;2023-11-21T03:59:10;28.25;;;14.57;;
84054;SDS011;74141;51.504;7.122;2023-11-21T04:01:36;30.45;;;15.50;;
84054;SDS011;74141;51.504;7.122;2023-11-21T04:04:01;29.97;;;14.30;;
84054;SDS011;74141;51.504;7.122;2023-11-21T04:06:27;30.48;;;13.57;;
84054;SDS011;74141;51.504;7.122;2023-11-21T04:08:52;34.20;;;13.37;;
84054;SDS011;74141;51.504;7.122;2023-11-21T04:11:18;33.63;;;13.25;;
84054;SDS011;74141;51.504;7.122;2023-11-21T04:13:43;29.40;;;13.68;;
84054;SDS011;74141;51.504;7.122;2023-11-21T04:16:08;28.80;;;15.30;;
84054;SDS011;74141;51.504;7.122;2023-11-21T04:18:37;34.43;;;14.60;;
84054;SDS011;74141;51.504;7.122;2023-11-21T04:21:03;33.97;;;14.38;;
84054;SDS011;74141;51.504;7.122;2023-11-21T04:23:29;24.63;;;13.82;;
84054;SDS011;74141;51.504;7.122;2023-11-21T04:25:56;28.30;;;12.65;;
84054;SDS011;74141;51.504;7.122;2023-11-21T04:28:22;34.55;;;14.50;;
84054;SDS011;74141;51.504;7.122;2023-11-21T04:30:48;27.15;;;13.13;;
84054;SDS011;74141;51.504;7.122;2023-11-21T04:33:13;26.38;;;12.75;;
84054;SDS011;74141;51.504;7.122;2023-11-21T04:35:38;25.88;;;12.10;;
84054;SDS011;74141;51.504;7.122;2023-11-21T04:38:04;32.53;;;14.80;;
84054;SDS011;74141;51.504;7.122;2023-11-21T04:40:29;29.73;;;13.18;;
84054;SDS011;74141;51.504;7.122;2023-11-21T04:42:55;28.63;;;12.90;;
84054;SDS011;74141;51.504;7.122;2023-11-21T04:45:21;41.10;;;14.13;;
84054;SDS011;74141;51.504;7.122;2023-11-21T04:47:47;32.40;;;14.05;;
84054;SDS011;74141;51.504;7.122;2023-11-21T04:50:12;30.52;;;14.23;;
84054;SDS011;74141;51.504;7.122;2023-11-21T04:52:37;34.97;;;14.23;;
84054;SDS011;74141;51.504;7.122;2023-11-21T04:55:03;36.35;;;13.05;;
84054;SDS011;74141;51.504;7.122;2023-11-21T04:57:28;27.23;;;14.40;;
84054;SDS011;74141;51.504;7.122;2023-11-21T04:59:54;26.77;;;13.15;;
84054;SDS011;74141;51.504;7.122;2023-11-21T05:02:19;34.10;;;13.65;;
84054;SDS011;74141;51.504;7.122;2023-11-21T05:04:46;26.50;;;12.30;;
84054;SDS011;74141;51.504;7.122;2023-11-21T05:07:11;33.70;;;12.75;;
84054;SDS011;74141;51.504;7.122;2023-11-21T05:09:40;28.17;;;13.27;;
84054;SDS011;74141;51.504;7.122;2023-11-21T05:12:06;28.58;;;12.48;;
84054;SDS011;74141;51.504;7.122;2023-11-21T05:14:32;28.75;;;12.48;;
84054;SDS011;74141;51.504;7.122;2023-11-21T05:16:57;22.33;;;11.40;;
84054;SDS011;74141;51.504;7.122;2023-11-21T05:19:24;22.77;;;12.35;;
84054;SDS011;74141;51.504;7.122;2023-11-21T05:21:49;28.87;;;12.30;;
84054;SDS011;74141;51.504;7.122;2023-11-21T05:24:14;24.30;;;12.20;;
84054;SDS011;74141;51.504;7.122;2023-11-21T05:26:40;27.23;;;13.15;;
84054;SDS011;74141;51.504;7.122;2023-11-21T05:29:05;22.20;;;12.68;;
84054;SDS011;74141;51.504;7.122;2023-11-21T05:31:31;24.38;;;13.10;;
84054;SDS011;74141;51.504;7.122;2023-11-21T05:33:56;25.63;;;12.07;;
84054;SDS011;74141;51.504;7.122;2023-11-21T05:36:22;25.63;;;13.60;;
84054;SDS011;74141;51.504;7.122;2023-11-21T05:38:47;32.27;;;12.63;;
84054;SDS011;74141;51.504;7.122;2023-11-21T05:41:12;27.85;;;12.82;;
84054;SDS011;74141;51.504;7.122;2023-11-21T05:43:38;34.25;;;14.80;;
84054;SDS011;74141;51.504;7.122;2023-11-21T05:46:04;33.70;;;12.27;;
84054;SDS011;74141;51.504;7.122;2023-11-21T05:48:30;26.10;;;12.57;;
84054;SDS011;74141;51.504;7.122;2023-11-21T05:50:56;25.23;;;12.38;;
84054;SDS011;74141;51.504;7.122;2023-11-21T05:53:21;30.83;;;14.10;;
84054;SDS011;74141;51.504;7.122;2023-11-21T05:55:46;24.33;;;12.50;;
84054;SDS011;74141;51.504;7.122;2023-11-21T05:58:12;24.90;;;11.85;;
84054;SDS011;74141;51.504;7.122;2023-11-21T06:00:38;29.88;;;12.68;;
84054;SDS011;74141;51.504;7.122;2023-11-21T06:03:04;29.67;;;15.07;;
84054;SDS011;74141;51.504;7.122;2023-11-21T06:05:31;31.73;;;13.93;;
84054;SDS011;74141;51.504;7.122;2023-11-21T06:07:58;29.95;;;13.50;;
84054;SDS011;74141;51.504;7.122;2023-11-21T06:10:24;29.00;;;12.95;;
84054;SDS011;74141;51.504;7.122;2023-11-21T06:12:50;22.65;;;12.82;;
84054;SDS011;74141;51.504;7.122;2023-11-21T06:15:15;31.13;;;13.25;;
84054;SDS011;74141;51.504;7.122;2023-11-21T06:17:44;34.05;;;13.90;;
84054;SDS011;74141;51.504;7.122;2023-11-21T06:20:10;38.33;;;13.45;;
84054;SDS011;74141;51.504;7.122;2023-11-21T06:22:40;37.22;;;14.70;;
84054;SDS011;74141;51.504;7.122;2023-11-21T06:25:08;33.05;;;13.57;;
84054;SDS011;74141;51.504;7.122;2023-11-21T06:27:36;33.90;;;13.55;;
84054;SDS011;74141;51.504;7.122;2023-11-21T06:30:03;29.48;;;14.43;;
84054;SDS011;74141;51.504;7.122;2023-11-21T06:32:29;25.75;;;12.05;;
84054;SDS011;74141;51.504;7.122;2023-11-21T06:34:55;29.25;;;13.15;;
84054;SDS011;74141;51.504;7.122;2023-11-21T06:37:20;32.90;;;12.57;;
84054;SDS011;74141;51.504;7.122;2023-11-21T06:39:48;33.83;;;13.10;;
84054;SDS011;74141;51.504;7.122;2023-11-21T06:42:14;29.80;;;12.60;;
84054;SDS011;74141;51.504;7.122;2023-11-21T06:44:40;30.33;;;14.50;;
84054;SDS011;74141;51.504;7.122;2023-11-21T06:47:06;33.67;;;14.55;;
84054;SDS011;74141;51.504;7.122;2023-11-21T06:49:32;38.15;;;17.00;;
84054;SDS011;74141;51.504;7.122;2023-11-21T06:51:57;29.50;;;15.07;;
84054;SDS011;74141;51.504;7.122;2023-11-21T06:54:23;30.45;;;14.38;;
84054;SDS011;74141;51.504;7.122;2023-11-21T06:56:49;32.95;;;14.32;;
84054;SDS011;74141;51.504;7.122;2023-11-21T06:59:15;28.73;;;14.07;;
84054;SDS011;74141;51.504;7.122;2023-11-21T07:01:40;31.35;;;13.73;;
84054;SDS011;74141;51.504;7.122;2023-11-21T07:04:06;29.73;;;13.48;;
84054;SDS011;74141;51.504;7.122;2023-11-21T07:06:33;34.97;;;13.93;;
84054;SDS011;74141;51.504;7.122;2023-11-21T07:08:59;24.55;;;13.10;;
84054;SDS011;74141;51.504;7.122;2023-11-21T07:11:26;27.10;;;13.30;;
84054;SDS011;74141;51.504;7.122;2023-11-21T07:13:51;33.50;;;15.10;;
84054;SDS011;74141;51.504;7.122;2023-11-21T07:16:17;28.63;;;13.30;;
84054;SDS011;74141;51.504;7.122;2023-11-21T07:18:43;30.67;;;13.98;;
84054;SDS011;74141;51.504;7.122;2023-11-21T07:21:09;27.77;;;13.88;;
84054;SDS011;74141;51.504;7.122;2023-11-21T07:23:36;32.13;;;14.57;;
84054;SDS011;74141;51.504;7.122;2023-11-21T07:26:02;39.97;;;15.63;;
84054;SDS011;74141;51.504;7.122;2023-11-21T07:28:27;29.23;;;14.45;;
84054;SDS011;74141;51.504;7.122;2023-11-21T07:30:53;40.58;;;17.25;;
84054;SDS011;74141;51.504;7.122;2023-11-21T07:33:19;46.80;;;16.23;;
84054;SDS011;74141;51.504;7.122;2023-11-21T07:35:44;43.07;;;15.93;;
84054;SDS011;74141;51.504;7.122;2023-11-21T07:38:09;43.80;;;17.60;;
84054;SDS011;74141;51.504;7.122;2023-11-21T07:40:34;38.80;;;17.90;;
84054;SDS011;74141;51.504;7.122;2023-11-21T07:43:00;46.90;;;17.63;;
84054;SDS011;74141;51.504;7.122;2023-11-21T07:45:26;43.53;;;17.45;;
84054;SDS011;74141;51.504;7.122;2023-11-21T07:47:53;43.35;;;17.33;;
84054;SDS011;74141;51.504;7.122;2023-11-21T07:50:19;50.38;;;18.00;;
84054;SDS011;74141;51.504;7.122;2023-11-21T07:52:45;43.40;;;17.80;;
84054;SDS011;74141;51.504;7.122;2023-11-21T07:55:10;50.10;;;18.75;;
84054;SDS011;74141;51.504;7.122;2023-11-21T07:57:36;53.05;;;20.88;;
84054;SDS011;74141;51.504;7.122;2023-11-21T08:00:02;54.05;;;21.17;;
84054;SDS011;74141;51.504;7.122;2023-11-21T08:02:28;52.70;;;21.63;;
84054;SDS011;74141;51.504;7.122;2023-11-21T08:04:54;56.35;;;22.83;;
84054;SDS011;74141;51.504;7.122;2023-11-21T08:07:20;61.10;;;21.98;;
84054;SDS011;74141;51.504;7.122;2023-11-21T08:09:45;59.40;;;21.67;;
84054;SDS011;74141;51.504;7.122;2023-11-21T08:12:11;67.10;;;23.60;;
84054;SDS011;74141;51.504;7.122;2023-11-21T08:14:37;72.13;;;24.00;;
84054;SDS011;74141;51.504;7.122;2023-11-21T08:17:04;64.70;;;25.17;;
84054;SDS011;74141;51.504;7.122;2023-11-21T08:19:29;80.25;;;27.08;;
84054;SDS011;74141;51.504;7.122;2023-11-21T08:21:54;76.60;;;27.23;;
84054;SDS011;74141;51.504;7.122;2023-11-21T08:24:21;77.15;;;28.27;;
84054;SDS011;74141;51.504;7.122;2023-11-21T08:26:46;89.00;;;28.60;;
84054;SDS011;74141;51.504;7.122;2023-11-21T08:29:12;85.55;;;30.08;;
84054;SDS011;74141;51.504;7.122;2023-11-21T08:31:38;72.10;;;27.75;;
84054;SDS011;74141;51.504;7.122;2023-11-21T08:34:04;74.28;;;27.30;;
84054;SDS011;74141;51.504;7.122;2023-11-21T08:36:29;79.17;;;26.87;;
84054;SDS011;74141;51.504;7.122;2023-11-21T08:38:56;90.60;;;31.83;;
84054;SDS011;74141;51.504;7.122;2023-11-21T08:41:21;103.90;;;35.72;;
84054;SDS011;74141;51.504;7.122;2023-11-21T08:43:47;100.70;;;33.80;;
84054;SDS011;74141;51.504;7.122;2023-11-21T08:46:14;88.55;;;31.65;;
84054;SDS011;74141;51.504;7.122;2023-11-21T08:48:40;98.18;;;35.50;;
84054;SDS011;74141;51.504;7.122;2023-11-21T08:51:06;91.28;;;31.27;;
84054;SDS011;74141;51.504;7.122;2023-11-21T08:53:32;91.35;;;31.33;;
84054;SDS011;74141;51.504;7.122;2023-11-21T08:55:57;94.47;;;31.30;;
84054;SDS011;74141;51.504;7.122;2023-11-21T08:58:23;93.07;;;31.67;;
84054;SDS011;74141;51.504;7.122;2023-11-21T09:00:50;86.40;;;31.60;;
84054;SDS011;74141;51.504;7.122;2023-11-21T09:03:15;91.57;;;32.10;;
84054;SDS011;74141;51.504;7.122;2023-11-21T09:05:40;82.43;;;30.70;;
84054;SDS011;74141;51.504;7.122;2023-11-21T09:08:05;78.47;;;30.43;;
84054;SDS011;74141;51.504;7.122;2023-11-21T09:10:32;93.65;;;32.53;;
84054;SDS011;74141;51.504;7.122;2023-11-21T09:13:00;86.72;;;30.77;;
84054;SDS011;74141;51.504;7.122;2023-11-21T09:15:26;81.90;;;29.30;;
84054;SDS011;74141;51.504;7.122;2023-11-21T09:17:51;81.20;;;28.70;;
84054;SDS011;74141;51.504;7.122;2023-11-21T09:20:16;72.47;;;29.13;;
84054;SDS011;74141;51.504;7.122;2023-11-21T09:22:42;88.40;;;30.73;;
84054;SDS011;74141;51.504;7.122;2023-11-21T09:25:09;84.40;;;30.42;;
84054;SDS011;74141;51.504;7.122;2023-11-21T09:27:35;80.15;;;28.30;;
84054;SDS011;74141;51.504;7.122;2023-11-21T09:30:03;78.47;;;30.10;;
84054;SDS011;74141;51.504;7.122;2023-11-21T09:32:30;82.28;;;30.40;;
84054;SDS011;74141;51.504;7.122;2023-11-21T09:34:55;76.07;;;28.60;;
84054;SDS011;74141;51.504;7.122;2023-11-21T09:37:23;79.75;;;31.05;;
84054;SDS011;74141;51.504;7.122;2023-11-21T09:39:48;83.97;;;31.17;;
84054;SDS011;74141;51.504;7.122;2023-11-21T09:42:15;83.10;;;31.23;;
84054;SDS011;74141;51.504;7.122;2023-11-21T09:47:34;87.13;;;29.77;;
84054;SDS011;74141;51.504;7.122;2023-11-21T09:50:01;77.68;;;28.35;;
84054;SDS011;74141;51.504;7.122;2023-11-21T09:52:27;82.43;;;30.48;;
84054;SDS011;74141;51.504;7.122;2023-11-21T09:54:54;78.15;;;30.23;;
84054;SDS011;74141;51.504;7.122;2023-11-21T09:57:24;77.95;;;30.45;;
84054;SDS011;74141;51.504;7.122;2023-11-21T09:59:53;70.90;;;29.08;;
84054;SDS011;74141;51.504;7.122;2023-11-21T10:02:27;75.68;;;31.08;;
84054;SDS011;74141;51.504;7.122;2023-11-21T10:04:55;77.15;;;30.55;;
84054;SDS011;74141;51.504;7.122;2023-11-21T10:07:21;72.45;;;26.00;;
84054;SDS011;74141;51.504;7.122;2023-11-21T10:09:47;71.95;;;27.92;;
84054;SDS011;74141;51.504;7.122;2023-11-21T10:12:16;75.05;;;29.52;;
84054;SDS011;74141;51.504;7.122;2023-11-21T10:14:42;71.88;;;29.60;;
84054;SDS011;74141;51.504;7.122;2023-11-21T10:17:09;77.85;;;27.90;;
84054;SDS011;74141;51.504;7.122;2023-11-21T10:19:37;69.68;;;29.52;;
84054;SDS011;74141;51.504;7.122;2023-11-21T10:22:04;85.85;;;30.90;;
84054;SDS011;74141;51.504;7.122;2023-11-21T10:24:31;87.05;;;31.00;;
84054;SDS011;74141;51.504;7.122;2023-11-21T10:26:57;76.75;;;28.88;;
84054;SDS011;74141;51.504;7.122;2023-11-21T10:29:22;74.40;;;29.33;;
84054;SDS011;74141;51.504;7.122;2023-11-21T10:31:51;69.97;;;26.58;;
84054;SDS011;74141;51.504;7.122;2023-11-21T10:34:19;80.38;;;30.95;;
84054;SDS011;74141;51.504;7.122;2023-11-21T10:36:46;78.68;;;27.88;;
84054;SDS011;74141;51.504;7.122;2023-11-21T10:39:21;81.15;;;32.08;;
84054;SDS011;74141;51.504;7.122;2023-11-21T10:41:48;80.10;;;27.02;;
84054;SDS011;74141;51.504;7.122;2023-11-21T10:44:15;70.82;;;28.40;;
84054;SDS011;74141;51.504;7.122;2023-11-21T10:46:51;81.93;;;29.08;;
84054;SDS011;74141;51.504;7.122;2023-11-21T10:49:21;55.25;;;24.33;;
84054;SDS011;74141;51.504;7.122;2023-11-21T10:51:46;62.22;;;26.33;;
84054;SDS011;74141;51.504;7.122;2023-11-21T10:54:17;55.90;;;23.58;;
84054;SDS011;74141;51.504;7.122;2023-11-21T10:56:45;58.92;;;24.80;;
84054;SDS011;74141;51.504;7.122;2023-11-21T10:59:15;58.72;;;25.85;;
84054;SDS011;74141;51.504;7.122;2023-11-21T11:01:42;61.78;;;25.70;;
84054;SDS011;74141;51.504;7.122;2023-11-21T11:04:10;61.38;;;25.85;;
84054;SDS011;74141;51.504;7.122;2023-11-21T11:06:42;68.35;;;26.05;;
84054;SDS011;74141;51.504;7.122;2023-11-21T11:09:10;61.28;;;27.15;;
84054;SDS011;74141;51.504;7.122;2023-11-21T11:11:38;64.47;;;27.23;;
84054;SDS011;74141;51.504;7.122;2023-11-21T11:14:10;69.53;;;27.58;;
84054;SDS011;74141;51.504;7.122;2023-11-21T11:16:37;63.13;;;28.63;;
84054;SDS011;74141;51.504;7.122;2023-11-21T11:19:06;53.92;;;25.83;;
84054;SDS011;74141;51.504;7.122;2023-11-21T11:30:03;70.70;;;29.63;;
84054;SDS011;74141;51.504;7.122;2023-11-21T11:32:37;52.10;;;25.17;;
84054;SDS011;74141;51.504;7.122;2023-11-21T11:35:24;41.75;;;20.48;;
84054;SDS011;74141;51.504;7.122;2023-11-21T11:37:58;43.58;;;21.58;;
84054;SDS011;74141;51.504;7.122;2023-11-21T11:40:25;43.95;;;23.17;;
84054;SDS011;74141;51.504;7.122;2023-11-21T11:43:05;55.80;;;23.15;;
84054;SDS011;74141;51.504;7.122;2023-11-21T11:45:32;43.10;;;22.20;;
84054;SDS011;74141;51.504;7.122;2023-11-21T11:47:59;46.78;;;23.52;;
84054;SDS011;74141;51.504;7.122;2023-11-21T11:50:26;46.75;;;23.48;;
84054;SDS011;74141;51.504;7.122;2023-11-21T11:52:55;49.63;;;22.60;;
84054;SDS011;74141;51.504;7.122;2023-11-21T11:55:36;48.65;;;24.08;;
84054;SDS011;74141;51.504;7.122;2023-11-21T11:58:01;52.05;;;22.80;;
84054;SDS011;74141;51.504;7.122;2023-11-21T12:00:35;37.10;;;16.30;;
84054;SDS011;74141;51.504;7.122;2023-11-21T12:03:05;33.92;;;15.95;;
84054;SDS011;74141;51.504;7.122;2023-11-21T12:05:32;29.90;;;14.02;;
84054;SDS011;74141;51.504;7.122;2023-11-21T12:08:04;31.27;;;15.15;;
84054;SDS011;74141;51.504;7.122;2023-11-21T12:10:31;32.03;;;15.80;;
84054;SDS011;74141;51.504;7.122;2023-11-21T12:12:59;32.63;;;16.17;;
84054;SDS011;74141;51.504;7.122;2023-11-21T12:15:26;33.30;;;16.10;;
84054;SDS011;74141;51.504;7.122;2023-11-21T12:17:54;35.30;;;17.27;;
84054;SDS011;74141;51.504;7.122;2023-11-21T12:20:20;32.88;;;17.77;;
84054;SDS011;74141;51.504;7.122;2023-11-21T12:22:49;33.20;;;18.10;;
84054;SDS011;74141;51.504;7.122;2023-11-21T12:25:16;31.52;;;16.70;;
84054;SDS011;74141;51.504;7.122;2023-11-21T12:27:44;37.47;;;17.90;;
84054;SDS011;74141;51.504;7.122;2023-11-21T12:30:11;26.98;;;15.75;;
84054;SDS011;74141;51.504;7.122;2023-11-21T12:32:39;37.28;;;16.98;;
84054;SDS011;74141;51.504;7.122;2023-11-21T12:35:06;32.10;;;16.90;;
84054;SDS011;74141;51.504;7.122;2023-11-21T12:37:32;35.47;;;18.73;;
84054;SDS011;74141;51.504;7.122;2023-11-21T12:39:57;33.28;;;17.92;;
84054;SDS011;74141;51.504;7.122;2023-11-21T12:42:23;38.03;;;17.53;;
84054;SDS011;74141;51.504;7.122;2023-11-21T12:45:05;40.45;;;18.52;;
84054;SDS011;74141;51.504;7.122;2023-11-21T12:47:37;37.20;;;17.27;;
84054;SDS011;74141;51.504;7.122;2023-11-21T12:50:02;35.33;;;16.70;;
84054;SDS011;74141;51.504;7.122;2023-11-21T12:52:28;33.70;;;17.13;;
84054;SDS011;74141;51.504;7.122;2023-11-21T12:54:53;30.48;;;16.30;;
84054;SDS011;74141;51.504;7.122;2023-11-21T12:57:19;28.95;;;16.15;;
84054;SDS011;74141;51.504;7.122;2023-11-21T12:59:45;29.33;;;15.57;;
84054;SDS011;74141;51.504;7.122;2023-11-21T13:02:12;29.90;;;15.48;;
84054;SDS011;74141;51.504;7.122;2023-11-21T13:04:39;23.83;;;14.02;;
84054;SDS011;74141;51.504;7.122;2023-11-21T13:07:04;20.87;;;12.60;;
84054;SDS011;74141;51.504;7.122;2023-11-21T13:09:39;24.70;;;13.63;;
84054;SDS011;74141;51.504;7.122;2023-11-21T13:12:04;23.75;;;13.40;;
84054;SDS011;74141;51.504;7.122;2023-11-21T13:14:33;20.58;;;12.25;;
84054;SDS011;74141;51.504;7.122;2023-11-21T13:16:58;22.05;;;12.95;;
84054;SDS011;74141;51.504;7.122;2023-11-21T13:19:24;19.37;;;11.83;;
84054;SDS011;74141;51.504;7.122;2023-11-21T13:21:49;24.83;;;13.55;;
84054;SDS011;74141;51.504;7.122;2023-11-21T13:24:15;26.75;;;13.10;;
84054;SDS011;74141;51.504;7.122;2023-11-21T13:26:41;25.92;;;13.90;;
84054;SDS011;74141;51.504;7.122;2023-11-21T13:29:07;25.13;;;13.07;;
84054;SDS011;74141;51.504;7.122;2023-11-21T13:31:33;25.85;;;12.98;;
84054;SDS011;74141;51.504;7.122;2023-11-21T13:34:01;22.60;;;12.10;;
84054;SDS011;74141;51.504;7.122;2023-11-21T13:36:30;24.33;;;13.23;;
84054;SDS011;74141;51.504;7.122;2023-11-21T13:38:58;22.35;;;11.88;;
84054;SDS011;74141;51.504;7.122;2023-11-21T13:41:24;23.35;;;12.73;;
84054;SDS011;74141;51.504;7.122;2023-11-21T13:43:55;21.15;;;12.65;;
84054;SDS011;74141;51.504;7.122;2023-11-21T13:46:31;25.52;;;11.77;;
84054;SDS011;74141;51.504;7.122;2023-11-21T13:49:01;23.50;;;12.85;;
84054;SDS011;74141;51.504;7.122;2023-11-21T13:51:27;20.63;;;11.15;;
84054;SDS011;74141;51.504;7.122;2023-11-21T13:54:02;21.80;;;11.88;;
84054;SDS011;74141;51.504;7.122;2023-11-21T13:56:30;23.10;;;11.57;;
84054;SDS011;74141;51.504;7.122;2023-11-21T13:58:56;22.83;;;13.30;;
84054;SDS011;74141;51.504;7.122;2023-11-21T14:01:28;25.67;;;13.18;;
84054;SDS011;74141;51.504;7.122;2023-11-21T14:03:57;22.02;;;11.75;;
84054;SDS011;74141;51.504;7.122;2023-11-21T14:06:27;23.70;;;11.68;;
84054;SDS011;74141;51.504;7.122;2023-11-21T14:08:59;21.80;;;12.57;;
84054;SDS011;74141;51.504;7.122;2023-11-21T14:11:30;19.17;;;11.55;;
84054;SDS011;74141;51.504;7.122;2023-11-21T14:13:55;19.23;;;9.45;;
84054;SDS011;74141;51.504;7.122;2023-11-21T14:16:21;17.75;;;9.20;;
84054;SDS011;74141;51.504;7.122;2023-11-21T14:18:47;15.45;;;8.10;;
84054;SDS011;74141;51.504;7.122;2023-11-21T14:21:22;18.35;;;9.27;;
84054;SDS011;74141;51.504;7.122;2023-11-21T14:23:47;20.45;;;9.45;;
84054;SDS011;74141;51.504;7.122;2023-11-21T14:26:13;18.17;;;8.85;;
84054;SDS011;74141;51.504;7.122;2023-11-21T14:28:40;13.40;;;8.20;;
84054;SDS011;74141;51.504;7.122;2023-11-21T14:31:06;17.20;;;8.68;;